sensor_id;sensor_type;location;lat;lon;timestamp;P1;durP1;ratioP1;P2;durP2;ratioP2
5279;SDS011;2663;53.588;10.010;2022-08-05T00:00:44;14.90;;;7.57;;
5279;SDS011;2663;53.588;10.010;2022-08-05T00:03:15;20.17;;;7.80;;
5279;SDS011;2663;53.588;10.010;2022-08-05T00:05:42;13.03;;;6.93;;
5279;SDS011;2663;53.588;10.010;2022-08-05T00:08:28;12.03;;;6.60;;
5279;SDS011;2663;53.588;10.010;2022-08-05T00:11:01;11.50;;;6.40;;
5279;SDS011;2663;53.588;10.010;2022-08-05T00:13:49;17.13;;;6.20;;
5279;SDS011;2663;53.588;10.010;2022-08-05T00:16:18;16.20;;;6.80;;
5279;SDS011;2663;53.588;10.010;2022-08-05T00:19:01;17.70;;;6.10;;
5279;SDS011;2663;53.588;10.010;2022-08-05T00:21:29;10.23;;;5.37;;
5279;SDS011;2663;53.588;10.010;2022-08-05T00:24:00;11.17;;;5.93;;
5279;SDS011;2663;53.588;10.010;2022-08-05T00:26:36;15.27;;;5.57;;
5279;SDS011;2663;53.588;10.010;2022-08-05T00:29:03;12.33;;;4.13;;
5279;SDS011;2663;53.588;10.010;2022-08-05T00:31:30;10.23;;;4.97;;
5279;SDS011;2663;53.588;10.010;2022-08-05T00:34:17;7.00;;;3.90;;
5279;SDS011;2663;53.588;10.010;2022-08-05T00:37:03;10.77;;;4.57;;
5279;SDS011;2663;53.588;10.010;2022-08-05T00:39:39;9.53;;;4.20;;
5279;SDS011;2663;53.588;10.010;2022-08-05T00:42:30;16.37;;;5.83;;
5279;SDS011;2663;53.588;10.010;2022-08-05T00:45:03;10.53;;;4.43;;
5279;SDS011;2663;53.588;10.010;2022-08-05T00:47:37;5.23;;;3.50;;
5279;SDS011;2663;53.588;10.010;2022-08-05T00:50:24;6.43;;;3.50;;
5279;SDS011;2663;53.588;10.010;2022-08-05T00:52:52;7.30;;;2.77;;
5279;SDS011;2663;53.588;10.010;2022-08-05T00:55:20;3.43;;;2.70;;
5279;SDS011;2663;53.588;10.010;2022-08-05T00:57:48;4.30;;;2.90;;
5279;SDS011;2663;53.588;10.010;2022-08-05T01:00:24;5.90;;;2.87;;
5279;SDS011;2663;53.588;10.010;2022-08-05T01:02:53;4.67;;;2.70;;
5279;SDS011;2663;53.588;10.010;2022-08-05T01:05:20;6.73;;;3.03;;
5279;SDS011;2663;53.588;10.010;2022-08-05T01:07:47;4.70;;;3.10;;
5279;SDS011;2663;53.588;10.010;2022-08-05T01:10:39;5.90;;;3.20;;
5279;SDS011;2663;53.588;10.010;2022-08-05T01:13:29;5.50;;;2.90;;
5279;SDS011;2663;53.588;10.010;2022-08-05T01:19:35;5.50;;;2.60;;
5279;SDS011;2663;53.588;10.010;2022-08-05T01:25:51;2.60;;;2.10;;
5279;SDS011;2663;53.588;10.010;2022-08-05T01:31:08;7.10;;;3.50;;
5279;SDS011;2663;53.588;10.010;2022-08-05T01:33:47;7.10;;;2.83;;
5279;SDS011;2663;53.588;10.010;2022-08-05T01:36:21;3.47;;;2.00;;
5279;SDS011;2663;53.588;10.010;2022-08-05T01:38:53;4.83;;;2.73;;
5279;SDS011;2663;53.588;10.010;2022-08-05T01:41:21;6.17;;;2.00;;
5279;SDS011;2663;53.588;10.010;2022-08-05T01:43:50;2.70;;;1.90;;
5279;SDS011;2663;53.588;10.010;2022-08-05T01:46:19;3.60;;;2.13;;
5279;SDS011;2663;53.588;10.010;2022-08-05T01:49:07;3.80;;;2.43;;
5279;SDS011;2663;53.588;10.010;2022-08-05T01:51:50;6.70;;;2.30;;
5279;SDS011;2663;53.588;10.010;2022-08-05T01:54:21;3.93;;;2.03;;
5279;SDS011;2663;53.588;10.010;2022-08-05T01:56:52;6.60;;;2.50;;
5279;SDS011;2663;53.588;10.010;2022-08-05T01:59:42;6.03;;;2.17;;
5279;SDS011;2663;53.588;10.010;2022-08-05T02:02:13;9.90;;;2.80;;
5279;SDS011;2663;53.588;10.010;2022-08-05T02:04:42;8.57;;;2.30;;
5279;SDS011;2663;53.588;10.010;2022-08-05T02:07:14;7.23;;;2.40;;
5279;SDS011;2663;53.588;10.010;2022-08-05T02:09:48;4.03;;;1.57;;
5279;SDS011;2663;53.588;10.010;2022-08-05T02:12:20;3.03;;;2.13;;
5279;SDS011;2663;53.588;10.010;2022-08-05T02:15:00;2.97;;;2.30;;
5279;SDS011;2663;53.588;10.010;2022-08-05T02:17:40;4.23;;;1.93;;
5279;SDS011;2663;53.588;10.010;2022-08-05T02:20:31;9.07;;;2.40;;
5279;SDS011;2663;53.588;10.010;2022-08-05T02:23:04;4.43;;;2.20;;
5279;SDS011;2663;53.588;10.010;2022-08-05T02:25:37;6.90;;;2.10;;
5279;SDS011;2663;53.588;10.010;2022-08-05T02:28:15;7.53;;;1.90;;
5279;SDS011;2663;53.588;10.010;2022-08-05T02:30:58;2.53;;;1.97;;
5279;SDS011;2663;53.588;10.010;2022-08-05T02:33:36;9.77;;;1.93;;
5279;SDS011;2663;53.588;10.010;2022-08-05T02:36:09;3.60;;;2.00;;
5279;SDS011;2663;53.588;10.010;2022-08-05T02:38:40;3.40;;;1.73;;
5279;SDS011;2663;53.588;10.010;2022-08-05T02:41:19;4.47;;;2.20;;
5279;SDS011;2663;53.588;10.010;2022-08-05T02:43:48;6.60;;;2.07;;
5279;SDS011;2663;53.588;10.010;2022-08-05T02:46:37;6.40;;;2.60;;
5279;SDS011;2663;53.588;10.010;2022-08-05T02:49:24;2.70;;;2.00;;
5279;SDS011;2663;53.588;10.010;2022-08-05T02:52:01;13.70;;;2.17;;
5279;SDS011;2663;53.588;10.010;2022-08-05T02:54:30;10.53;;;2.77;;
5279;SDS011;2663;53.588;10.010;2022-08-05T02:57:01;8.83;;;2.23;;
5279;SDS011;2663;53.588;10.010;2022-08-05T03:00:02;9.10;;;3.10;;
5279;SDS011;2663;53.588;10.010;2022-08-05T03:02:33;4.00;;;2.23;;
5279;SDS011;2663;53.588;10.010;2022-08-05T03:05:02;6.70;;;2.10;;
5279;SDS011;2663;53.588;10.010;2022-08-05T03:07:30;5.20;;;3.27;;
5279;SDS011;2663;53.588;10.010;2022-08-05T03:10:17;7.30;;;2.60;;
5279;SDS011;2663;53.588;10.010;2022-08-05T03:12:50;8.20;;;2.83;;
5279;SDS011;2663;53.588;10.010;2022-08-05T03:15:18;5.50;;;2.50;;
5279;SDS011;2663;53.588;10.010;2022-08-05T03:17:45;5.50;;;2.50;;
5279;SDS011;2663;53.588;10.010;2022-08-05T03:20:12;5.90;;;2.80;;
5279;SDS011;2663;53.588;10.010;2022-08-05T03:22:40;6.33;;;3.00;;
5279;SDS011;2663;53.588;10.010;2022-08-05T03:25:11;5.00;;;2.60;;
5279;SDS011;2663;53.588;10.010;2022-08-05T03:27:59;7.50;;;2.80;;
5279;SDS011;2663;53.588;10.010;2022-08-05T03:30:27;9.93;;;3.30;;
5279;SDS011;2663;53.588;10.010;2022-08-05T03:32:59;15.87;;;3.37;;
5279;SDS011;2663;53.588;10.010;2022-08-05T03:35:28;9.43;;;2.80;;
5279;SDS011;2663;53.588;10.010;2022-08-05T03:37:59;6.13;;;2.87;;
5279;SDS011;2663;53.588;10.010;2022-08-05T03:40:26;9.07;;;4.83;;
5279;SDS011;2663;53.588;10.010;2022-08-05T03:42:58;7.07;;;3.20;;
5279;SDS011;2663;53.588;10.010;2022-08-05T03:45:45;6.73;;;3.07;;
5279;SDS011;2663;53.588;10.010;2022-08-05T03:48:24;8.83;;;2.83;;
5279;SDS011;2663;53.588;10.010;2022-08-05T03:51:00;8.23;;;3.00;;
5279;SDS011;2663;53.588;10.010;2022-08-05T03:53:59;7.07;;;2.80;;
5279;SDS011;2663;53.588;10.010;2022-08-05T03:56:51;9.80;;;3.50;;
5279;SDS011;2663;53.588;10.010;2022-08-05T03:59:19;7.40;;;2.93;;
5279;SDS011;2663;53.588;10.010;2022-08-05T04:01:50;8.27;;;3.27;;
5279;SDS011;2663;53.588;10.010;2022-08-05T04:04:24;10.53;;;3.53;;
5279;SDS011;2663;53.588;10.010;2022-08-05T04:06:52;5.03;;;2.83;;
5279;SDS011;2663;53.588;10.010;2022-08-05T04:09:21;3.63;;;2.87;;
5279;SDS011;2663;53.588;10.010;2022-08-05T04:11:52;9.07;;;3.20;;
5279;SDS011;2663;53.588;10.010;2022-08-05T04:14:22;9.57;;;3.60;;
5279;SDS011;2663;53.588;10.010;2022-08-05T04:16:56;8.83;;;2.67;;
5279;SDS011;2663;53.588;10.010;2022-08-05T04:19:24;4.03;;;2.70;;
5279;SDS011;2663;53.588;10.010;2022-08-05T04:21:52;5.57;;;2.90;;
5279;SDS011;2663;53.588;10.010;2022-08-05T04:24:41;7.97;;;2.70;;
5279;SDS011;2663;53.588;10.010;2022-08-05T04:27:18;3.63;;;2.83;;
5279;SDS011;2663;53.588;10.010;2022-08-05T04:30:05;5.50;;;3.17;;
5279;SDS011;2663;53.588;10.010;2022-08-05T04:32:34;6.53;;;2.43;;
5279;SDS011;2663;53.588;10.010;2022-08-05T04:35:01;9.07;;;3.40;;
5279;SDS011;2663;53.588;10.010;2022-08-05T04:37:29;15.50;;;3.40;;
5279;SDS011;2663;53.588;10.010;2022-08-05T04:40:17;4.73;;;3.30;;
5279;SDS011;2663;53.588;10.010;2022-08-05T04:42:44;7.90;;;3.67;;
5279;SDS011;2663;53.588;10.010;2022-08-05T04:45:11;5.10;;;3.37;;
5279;SDS011;2663;53.588;10.010;2022-08-05T04:47:48;12.93;;;3.70;;
5279;SDS011;2663;53.588;10.010;2022-08-05T04:50:15;6.13;;;3.50;;
5279;SDS011;2663;53.588;10.010;2022-08-05T04:53:02;12.10;;;3.37;;
5279;SDS011;2663;53.588;10.010;2022-08-05T04:55:29;6.33;;;3.20;;
5279;SDS011;2663;53.588;10.010;2022-08-05T04:58:16;5.20;;;3.30;;
5279;SDS011;2663;53.588;10.010;2022-08-05T05:00:46;4.57;;;3.17;;
5279;SDS011;2663;53.588;10.010;2022-08-05T05:03:16;7.80;;;3.10;;
5279;SDS011;2663;53.588;10.010;2022-08-05T05:05:45;9.50;;;3.53;;
5279;SDS011;2663;53.588;10.010;2022-08-05T05:08:32;7.57;;;3.77;;
5279;SDS011;2663;53.588;10.010;2022-08-05T05:11:07;3.77;;;3.43;;
5279;SDS011;2663;53.588;10.010;2022-08-05T05:13:40;6.33;;;3.97;;
5279;SDS011;2663;53.588;10.010;2022-08-05T05:16:08;6.40;;;4.93;;
5279;SDS011;2663;53.588;10.010;2022-08-05T05:18:36;8.70;;;4.80;;
5279;SDS011;2663;53.588;10.010;2022-08-05T05:21:03;6.60;;;4.60;;
5279;SDS011;2663;53.588;10.010;2022-08-05T05:23:30;6.27;;;3.90;;
5279;SDS011;2663;53.588;10.010;2022-08-05T05:26:17;5.40;;;3.97;;
5279;SDS011;2663;53.588;10.010;2022-08-05T05:28:53;4.50;;;3.40;;
5279;SDS011;2663;53.588;10.010;2022-08-05T05:31:22;9.20;;;3.90;;
5279;SDS011;2663;53.588;10.010;2022-08-05T05:33:50;9.13;;;4.13;;
5279;SDS011;2663;53.588;10.010;2022-08-05T05:36:27;8.87;;;3.77;;
5279;SDS011;2663;53.588;10.010;2022-08-05T05:38:55;15.60;;;4.50;;
5279;SDS011;2663;53.588;10.010;2022-08-05T05:41:22;8.33;;;3.73;;
5279;SDS011;2663;53.588;10.010;2022-08-05T05:43:49;6.47;;;3.73;;
5279;SDS011;2663;53.588;10.010;2022-08-05T05:46:25;4.73;;;3.70;;
5279;SDS011;2663;53.588;10.010;2022-08-05T05:48:52;11.73;;;3.93;;
5279;SDS011;2663;53.588;10.010;2022-08-05T05:51:19;10.50;;;4.90;;
5279;SDS011;2663;53.588;10.010;2022-08-05T05:53:47;9.03;;;3.93;;
5279;SDS011;2663;53.588;10.010;2022-08-05T05:56:28;5.73;;;3.13;;
5279;SDS011;2663;53.588;10.010;2022-08-05T05:58:59;4.60;;;3.70;;
5279;SDS011;2663;53.588;10.010;2022-08-05T06:01:34;5.97;;;3.67;;
5279;SDS011;2663;53.588;10.010;2022-08-05T06:04:05;14.37;;;3.80;;
5279;SDS011;2663;53.588;10.010;2022-08-05T06:06:37;9.20;;;4.77;;
5279;SDS011;2663;53.588;10.010;2022-08-05T06:09:07;8.80;;;4.70;;
5279;SDS011;2663;53.588;10.010;2022-08-05T06:11:34;14.47;;;3.90;;
5279;SDS011;2663;53.588;10.010;2022-08-05T06:14:04;6.70;;;3.87;;
5279;SDS011;2663;53.588;10.010;2022-08-05T06:16:31;4.07;;;3.23;;
5279;SDS011;2663;53.588;10.010;2022-08-05T06:19:03;12.87;;;3.70;;
5279;SDS011;2663;53.588;10.010;2022-08-05T06:21:32;11.50;;;3.60;;
5279;SDS011;2663;53.588;10.010;2022-08-05T06:24:06;6.20;;;3.40;;
5279;SDS011;2663;53.588;10.010;2022-08-05T06:26:38;6.90;;;3.63;;
5279;SDS011;2663;53.588;10.010;2022-08-05T06:29:17;11.20;;;3.97;;
5279;SDS011;2663;53.588;10.010;2022-08-05T06:32:05;12.10;;;3.57;;
5279;SDS011;2663;53.588;10.010;2022-08-05T06:34:51;9.33;;;4.10;;
5279;SDS011;2663;53.588;10.010;2022-08-05T06:37:22;4.33;;;3.70;;
5279;SDS011;2663;53.588;10.010;2022-08-05T06:40:09;12.30;;;4.30;;
5279;SDS011;2663;53.588;10.010;2022-08-05T06:42:37;9.53;;;3.90;;
5279;SDS011;2663;53.588;10.010;2022-08-05T06:45:05;10.23;;;4.10;;
5279;SDS011;2663;53.588;10.010;2022-08-05T06:47:34;4.17;;;3.27;;
5279;SDS011;2663;53.588;10.010;2022-08-05T06:50:21;10.07;;;3.90;;
5279;SDS011;2663;53.588;10.010;2022-08-05T06:52:48;7.20;;;3.50;;
5279;SDS011;2663;53.588;10.010;2022-08-05T06:55:29;4.90;;;3.80;;
5279;SDS011;2663;53.588;10.010;2022-08-05T06:58:01;5.80;;;4.10;;
5279;SDS011;2663;53.588;10.010;2022-08-05T07:00:49;3.93;;;3.27;;
5279;SDS011;2663;53.588;10.010;2022-08-05T07:03:16;9.23;;;3.47;;
5279;SDS011;2663;53.588;10.010;2022-08-05T07:05:43;7.70;;;4.63;;
5279;SDS011;2663;53.588;10.010;2022-08-05T07:08:11;6.87;;;3.90;;
5279;SDS011;2663;53.588;10.010;2022-08-05T07:10:38;3.70;;;2.97;;
5279;SDS011;2663;53.588;10.010;2022-08-05T07:13:20;9.60;;;4.63;;
5279;SDS011;2663;53.588;10.010;2022-08-05T07:16:24;4.93;;;2.87;;
5279;SDS011;2663;53.588;10.010;2022-08-05T07:19:29;9.53;;;3.20;;
5279;SDS011;2663;53.588;10.010;2022-08-05T07:22:16;5.10;;;3.20;;
5279;SDS011;2663;53.588;10.010;2022-08-05T07:24:44;8.50;;;3.30;;
5279;SDS011;2663;53.588;10.010;2022-08-05T07:27:17;4.60;;;3.60;;
5279;SDS011;2663;53.588;10.010;2022-08-05T07:29:46;3.47;;;3.17;;
5279;SDS011;2663;53.588;10.010;2022-08-05T07:32:36;8.33;;;3.50;;
5279;SDS011;2663;53.588;10.010;2022-08-05T07:35:07;5.23;;;3.70;;
5279;SDS011;2663;53.588;10.010;2022-08-05T07:37:55;8.50;;;3.60;;
5279;SDS011;2663;53.588;10.010;2022-08-05T07:40:21;3.80;;;3.20;;
5279;SDS011;2663;53.588;10.010;2022-08-05T07:42:57;4.67;;;3.10;;
5279;SDS011;2663;53.588;10.010;2022-08-05T07:45:30;8.90;;;3.13;;
5279;SDS011;2663;53.588;10.010;2022-08-05T07:48:19;3.03;;;2.70;;
5279;SDS011;2663;53.588;10.010;2022-08-05T07:51:06;10.87;;;2.77;;
5279;SDS011;2663;53.588;10.010;2022-08-05T07:53:49;4.17;;;3.10;;
5279;SDS011;2663;53.588;10.010;2022-08-05T07:56:16;7.60;;;2.90;;
5279;SDS011;2663;53.588;10.010;2022-08-05T07:59:03;3.80;;;2.67;;
5279;SDS011;2663;53.588;10.010;2022-08-05T08:01:33;7.03;;;2.50;;
5279;SDS011;2663;53.588;10.010;2022-08-05T08:04:16;5.50;;;3.20;;
5279;SDS011;2663;53.588;10.010;2022-08-05T08:07:03;5.07;;;2.80;;
5279;SDS011;2663;53.588;10.010;2022-08-05T08:09:32;11.47;;;4.03;;
5279;SDS011;2663;53.588;10.010;2022-08-05T08:11:59;6.40;;;2.47;;
5279;SDS011;2663;53.588;10.010;2022-08-05T08:14:36;3.87;;;2.40;;
5279;SDS011;2663;53.588;10.010;2022-08-05T08:17:05;8.90;;;3.43;;
5279;SDS011;2663;53.588;10.010;2022-08-05T08:19:41;7.37;;;3.30;;
5279;SDS011;2663;53.588;10.010;2022-08-05T08:22:29;4.93;;;3.03;;
5279;SDS011;2663;53.588;10.010;2022-08-05T08:24:57;12.53;;;3.60;;
5279;SDS011;2663;53.588;10.010;2022-08-05T08:27:41;4.43;;;3.10;;
5279;SDS011;2663;53.588;10.010;2022-08-05T08:30:13;5.20;;;3.27;;
5279;SDS011;2663;53.588;10.010;2022-08-05T08:32:59;4.53;;;2.93;;
5279;SDS011;2663;53.588;10.010;2022-08-05T08:35:33;6.60;;;3.20;;
5279;SDS011;2663;53.588;10.010;2022-08-05T08:38:06;10.17;;;3.00;;
5279;SDS011;2663;53.588;10.010;2022-08-05T08:40:41;12.23;;;3.40;;
5279;SDS011;2663;53.588;10.010;2022-08-05T08:43:17;5.03;;;3.10;;
5279;SDS011;2663;53.588;10.010;2022-08-05T08:46:04;10.30;;;3.77;;
5279;SDS011;2663;53.588;10.010;2022-08-05T08:48:40;4.70;;;2.53;;
5279;SDS011;2663;53.588;10.010;2022-08-05T08:51:31;16.43;;;2.90;;
5279;SDS011;2663;53.588;10.010;2022-08-05T08:54:19;8.43;;;2.83;;
5279;SDS011;2663;53.588;10.010;2022-08-05T08:56:52;3.03;;;2.53;;
5279;SDS011;2663;53.588;10.010;2022-08-05T08:59:21;4.37;;;2.20;;
5279;SDS011;2663;53.588;10.010;2022-08-05T09:01:58;15.63;;;2.60;;
5279;SDS011;2663;53.588;10.010;2022-08-05T09:04:27;6.57;;;2.90;;
5279;SDS011;2663;53.588;10.010;2022-08-05T09:06:56;5.30;;;2.80;;
5279;SDS011;2663;53.588;10.010;2022-08-05T09:09:23;5.00;;;2.60;;
5279;SDS011;2663;53.588;10.010;2022-08-05T09:11:57;16.90;;;9.07;;
5279;SDS011;2663;53.588;10.010;2022-08-05T09:14:38;7.30;;;3.50;;
5279;SDS011;2663;53.588;10.010;2022-08-05T09:17:24;7.07;;;2.57;;
5279;SDS011;2663;53.588;10.010;2022-08-05T09:20:08;9.43;;;3.13;;
5279;SDS011;2663;53.588;10.010;2022-08-05T09:25:49;2.83;;;2.50;;
5279;SDS011;2663;53.588;10.010;2022-08-05T09:28:28;5.17;;;2.80;;
5279;SDS011;2663;53.588;10.010;2022-08-05T09:33:58;6.60;;;2.50;;
5279;SDS011;2663;53.588;10.010;2022-08-05T09:36:37;10.17;;;2.63;;
5279;SDS011;2663;53.588;10.010;2022-08-05T09:39:20;7.70;;;2.90;;
5279;SDS011;2663;53.588;10.010;2022-08-05T09:42:09;8.70;;;2.67;;
5279;SDS011;2663;53.588;10.010;2022-08-05T09:44:49;5.00;;;2.63;;
5279;SDS011;2663;53.588;10.010;2022-08-05T09:47:17;8.23;;;3.10;;
5279;SDS011;2663;53.588;10.010;2022-08-05T09:49:50;6.07;;;2.70;;
5279;SDS011;2663;53.588;10.010;2022-08-05T09:55:03;5.30;;;2.50;;
5279;SDS011;2663;53.588;10.010;2022-08-05T09:57:54;7.70;;;3.10;;
5279;SDS011;2663;53.588;10.010;2022-08-05T10:00:25;6.00;;;2.40;;
5279;SDS011;2663;53.588;10.010;2022-08-05T10:02:55;7.20;;;2.70;;
5279;SDS011;2663;53.588;10.010;2022-08-05T10:05:24;4.73;;;2.37;;
5279;SDS011;2663;53.588;10.010;2022-08-05T10:07:54;7.73;;;2.87;;
5279;SDS011;2663;53.588;10.010;2022-08-05T10:13:25;5.80;;;2.90;;
5279;SDS011;2663;53.588;10.010;2022-08-05T10:16:33;4.90;;;2.47;;
5279;SDS011;2663;53.588;10.010;2022-08-05T10:19:03;11.73;;;2.80;;
5279;SDS011;2663;53.588;10.010;2022-08-05T10:21:34;5.80;;;2.90;;
5279;SDS011;2663;53.588;10.010;2022-08-05T10:24:06;5.80;;;2.57;;
5279;SDS011;2663;53.588;10.010;2022-08-05T10:26:36;6.33;;;2.90;;
5279;SDS011;2663;53.588;10.010;2022-08-05T10:29:18;2.70;;;2.40;;
5279;SDS011;2663;53.588;10.010;2022-08-05T10:32:06;3.30;;;2.23;;
5279;SDS011;2663;53.588;10.010;2022-08-05T10:34:53;5.13;;;2.10;;
5279;SDS011;2663;53.588;10.010;2022-08-05T10:37:26;8.53;;;2.47;;
5279;SDS011;2663;53.588;10.010;2022-08-05T10:40:33;5.90;;;2.30;;
5279;SDS011;2663;53.588;10.010;2022-08-05T10:43:30;5.27;;;2.73;;
5279;SDS011;2663;53.588;10.010;2022-08-05T10:46:17;4.60;;;2.23;;
5279;SDS011;2663;53.588;10.010;2022-08-05T10:48:49;5.27;;;2.40;;
5279;SDS011;2663;53.588;10.010;2022-08-05T10:51:45;6.17;;;2.70;;
5279;SDS011;2663;53.588;10.010;2022-08-05T10:54:43;4.87;;;2.50;;
5279;SDS011;2663;53.588;10.010;2022-08-05T10:57:26;6.63;;;2.93;;
5279;SDS011;2663;53.588;10.010;2022-08-05T11:00:06;7.17;;;2.50;;
5279;SDS011;2663;53.588;10.010;2022-08-05T11:06:04;4.70;;;2.60;;
5279;SDS011;2663;53.588;10.010;2022-08-05T11:11:41;1.83;;;1.60;;
5279;SDS011;2663;53.588;10.010;2022-08-05T11:14:22;1.63;;;1.40;;
5279;SDS011;2663;53.588;10.010;2022-08-05T11:17:23;4.40;;;1.90;;
5279;SDS011;2663;53.588;10.010;2022-08-05T11:20:30;4.87;;;1.67;;
5279;SDS011;2663;53.588;10.010;2022-08-05T11:26:31;3.60;;;2.10;;
5279;SDS011;2663;53.588;10.010;2022-08-05T11:28:59;4.50;;;2.00;;
5279;SDS011;2663;53.588;10.010;2022-08-05T11:31:40;8.70;;;1.87;;
5279;SDS011;2663;53.588;10.010;2022-08-05T11:34:38;1.90;;;1.70;;
5279;SDS011;2663;53.588;10.010;2022-08-05T11:37:40;3.40;;;1.70;;
5279;SDS011;2663;53.588;10.010;2022-08-05T11:43:56;1.50;;;1.23;;
5279;SDS011;2663;53.588;10.010;2022-08-05T11:46:39;3.43;;;1.27;;
5279;SDS011;2663;53.588;10.010;2022-08-05T11:49:37;4.30;;;1.33;;
5279;SDS011;2663;53.588;10.010;2022-08-05T11:52:08;10.63;;;1.40;;
5279;SDS011;2663;53.588;10.010;2022-08-05T11:54:37;1.87;;;1.20;;
5279;SDS011;2663;53.588;10.010;2022-08-05T11:57:06;3.50;;;1.13;;
5279;SDS011;2663;53.588;10.010;2022-08-05T11:59:52;5.07;;;1.50;;
5279;SDS011;2663;53.588;10.010;2022-08-05T12:02:26;5.60;;;1.97;;
5279;SDS011;2663;53.588;10.010;2022-08-05T12:05:01;2.30;;;1.60;;
5279;SDS011;2663;53.588;10.010;2022-08-05T12:07:34;2.73;;;1.80;;
5279;SDS011;2663;53.588;10.010;2022-08-05T12:10:24;2.87;;;1.80;;
5279;SDS011;2663;53.588;10.010;2022-08-05T12:13:10;1.50;;;1.40;;
5279;SDS011;2663;53.588;10.010;2022-08-05T12:15:43;3.10;;;1.93;;
5279;SDS011;2663;53.588;10.010;2022-08-05T12:18:17;2.80;;;1.80;;
5279;SDS011;2663;53.588;10.010;2022-08-05T12:20:49;2.70;;;1.90;;
5279;SDS011;2663;53.588;10.010;2022-08-05T12:23:16;4.57;;;2.10;;
5279;SDS011;2663;53.588;10.010;2022-08-05T12:25:52;2.40;;;1.63;;
5279;SDS011;2663;53.588;10.010;2022-08-05T12:28:28;2.43;;;1.97;;
5279;SDS011;2663;53.588;10.010;2022-08-05T12:30:56;4.83;;;2.30;;
5279;SDS011;2663;53.588;10.010;2022-08-05T12:33:27;2.43;;;2.23;;
5279;SDS011;2663;53.588;10.010;2022-08-05T12:36:04;5.60;;;3.07;;
5279;SDS011;2663;53.588;10.010;2022-08-05T12:38:35;2.60;;;2.40;;
5279;SDS011;2663;53.588;10.010;2022-08-05T12:41:07;6.20;;;3.40;;
5279;SDS011;2663;53.588;10.010;2022-08-05T12:43:55;22.73;;;3.87;;
5279;SDS011;2663;53.588;10.010;2022-08-05T12:46:24;3.60;;;2.90;;
5279;SDS011;2663;53.588;10.010;2022-08-05T12:49:05;3.43;;;2.73;;
5279;SDS011;2663;53.588;10.010;2022-08-05T12:51:58;4.80;;;2.77;;
5279;SDS011;2663;53.588;10.010;2022-08-05T12:54:46;8.93;;;2.20;;
5279;SDS011;2663;53.588;10.010;2022-08-05T12:57:14;6.70;;;2.50;;
5279;SDS011;2663;53.588;10.010;2022-08-05T12:59:45;4.83;;;2.50;;
5279;SDS011;2663;53.588;10.010;2022-08-05T13:02:35;8.23;;;2.97;;
5279;SDS011;2663;53.588;10.010;2022-08-05T13:05:06;4.20;;;2.20;;
5279;SDS011;2663;53.588;10.010;2022-08-05T13:07:38;2.57;;;2.23;;
5279;SDS011;2663;53.588;10.010;2022-08-05T13:10:25;5.50;;;1.90;;
5279;SDS011;2663;53.588;10.010;2022-08-05T13:12:54;6.87;;;2.10;;
5279;SDS011;2663;53.588;10.010;2022-08-05T13:15:27;18.93;;;1.77;;
5279;SDS011;2663;53.588;10.010;2022-08-05T13:18:06;3.30;;;1.33;;
5279;SDS011;2663;53.588;10.010;2022-08-05T13:20:33;4.70;;;1.87;;
5279;SDS011;2663;53.588;10.010;2022-08-05T13:23:05;5.27;;;1.60;;
5279;SDS011;2663;53.588;10.010;2022-08-05T13:25:32;2.47;;;1.20;;
5279;SDS011;2663;53.588;10.010;2022-08-05T13:28:20;2.83;;;1.67;;
5279;SDS011;2663;53.588;10.010;2022-08-05T13:30:47;5.43;;;1.07;;
5279;SDS011;2663;53.588;10.010;2022-08-05T13:33:18;5.20;;;1.37;;
5279;SDS011;2663;53.588;10.010;2022-08-05T13:36:05;2.27;;;1.07;;
5279;SDS011;2663;53.588;10.010;2022-08-05T13:38:34;4.00;;;1.20;;
5279;SDS011;2663;53.588;10.010;2022-08-05T13:41:07;6.57;;;1.27;;
5279;SDS011;2663;53.588;10.010;2022-08-05T13:43:35;1.80;;;1.17;;
5279;SDS011;2663;53.588;10.010;2022-08-05T13:46:19;3.20;;;1.23;;
5279;SDS011;2663;53.588;10.010;2022-08-05T13:49:06;2.37;;;1.33;;
5279;SDS011;2663;53.588;10.010;2022-08-05T13:51:36;2.30;;;1.40;;
5279;SDS011;2663;53.588;10.010;2022-08-05T13:54:07;3.13;;;1.30;;
5279;SDS011;2663;53.588;10.010;2022-08-05T13:56:38;4.93;;;2.07;;
5279;SDS011;2663;53.588;10.010;2022-08-05T13:59:16;2.63;;;1.17;;
5279;SDS011;2663;53.588;10.010;2022-08-05T14:01:48;3.17;;;1.13;;
5279;SDS011;2663;53.588;10.010;2022-08-05T14:04:24;2.50;;;1.07;;
5279;SDS011;2663;53.588;10.010;2022-08-05T14:07:20;3.57;;;1.30;;
5279;SDS011;2663;53.588;10.010;2022-08-05T14:12:45;4.17;;;1.80;;
5279;SDS011;2663;53.588;10.010;2022-08-05T14:15:14;4.20;;;1.30;;
5279;SDS011;2663;53.588;10.010;2022-08-05T14:18:02;6.17;;;2.07;;
5279;SDS011;2663;53.588;10.010;2022-08-05T14:20:29;8.10;;;1.63;;
5279;SDS011;2663;53.588;10.010;2022-08-05T14:22:57;1.23;;;1.23;;
5279;SDS011;2663;53.588;10.010;2022-08-05T14:25:25;5.90;;;2.10;;
5279;SDS011;2663;53.588;10.010;2022-08-05T14:27:53;3.17;;;1.70;;
5279;SDS011;2663;53.588;10.010;2022-08-05T14:30:20;12.33;;;2.13;;
5279;SDS011;2663;53.588;10.010;2022-08-05T14:32:51;4.90;;;1.77;;
5279;SDS011;2663;53.588;10.010;2022-08-05T14:35:18;5.40;;;2.00;;
5279;SDS011;2663;53.588;10.010;2022-08-05T14:37:47;3.37;;;1.73;;
5279;SDS011;2663;53.588;10.010;2022-08-05T14:40:18;1.40;;;1.30;;
5279;SDS011;2663;53.588;10.010;2022-08-05T14:42:49;6.33;;;1.87;;
5279;SDS011;2663;53.588;10.010;2022-08-05T14:45:16;1.77;;;1.37;;
5279;SDS011;2663;53.588;10.010;2022-08-05T14:47:43;2.53;;;1.67;;
5279;SDS011;2663;53.588;10.010;2022-08-05T14:50:30;7.30;;;1.40;;
5279;SDS011;2663;53.588;10.010;2022-08-05T14:53:01;1.93;;;1.50;;
5279;SDS011;2663;53.588;10.010;2022-08-05T14:55:30;5.87;;;1.90;;
5279;SDS011;2663;53.588;10.010;2022-08-05T14:58:05;1.63;;;1.50;;
5279;SDS011;2663;53.588;10.010;2022-08-05T15:00:36;4.80;;;1.57;;
5279;SDS011;2663;53.588;10.010;2022-08-05T15:03:03;2.87;;;1.77;;
5279;SDS011;2663;53.588;10.010;2022-08-05T15:05:34;5.00;;;1.70;;
5279;SDS011;2663;53.588;10.010;2022-08-05T15:08:21;2.30;;;1.53;;
5279;SDS011;2663;53.588;10.010;2022-08-05T15:11:08;5.90;;;2.07;;
5279;SDS011;2663;53.588;10.010;2022-08-05T15:13:37;3.00;;;1.50;;
5279;SDS011;2663;53.588;10.010;2022-08-05T15:16:11;5.50;;;1.93;;
5279;SDS011;2663;53.588;10.010;2022-08-05T15:18:38;3.83;;;1.70;;
5279;SDS011;2663;53.588;10.010;2022-08-05T15:21:06;6.10;;;1.73;;
5279;SDS011;2663;53.588;10.010;2022-08-05T15:23:33;2.13;;;1.87;;
5279;SDS011;2663;53.588;10.010;2022-08-05T15:26:03;2.07;;;1.80;;
5279;SDS011;2663;53.588;10.010;2022-08-05T15:28:29;3.30;;;1.90;;
5279;SDS011;2663;53.588;10.010;2022-08-05T15:30:56;2.57;;;1.80;;
5279;SDS011;2663;53.588;10.010;2022-08-05T15:33:24;4.50;;;1.73;;
5279;SDS011;2663;53.588;10.010;2022-08-05T15:36:10;2.37;;;2.03;;
5279;SDS011;2663;53.588;10.010;2022-08-05T15:38:50;2.13;;;1.93;;
5279;SDS011;2663;53.588;10.010;2022-08-05T15:41:39;10.83;;;3.03;;
5279;SDS011;2663;53.588;10.010;2022-08-05T15:44:24;3.40;;;1.50;;
5279;SDS011;2663;53.588;10.010;2022-08-05T15:46:52;4.87;;;2.73;;
5279;SDS011;2663;53.588;10.010;2022-08-05T15:49:20;4.10;;;1.63;;
5279;SDS011;2663;53.588;10.010;2022-08-05T15:52:07;7.03;;;1.47;;
5279;SDS011;2663;53.588;10.010;2022-08-05T15:54:42;4.10;;;1.20;;
5279;SDS011;2663;53.588;10.010;2022-08-05T15:57:09;6.40;;;2.07;;
5279;SDS011;2663;53.588;10.010;2022-08-05T15:59:35;9.10;;;1.33;;
5279;SDS011;2663;53.588;10.010;2022-08-05T16:02:03;5.87;;;1.33;;
5279;SDS011;2663;53.588;10.010;2022-08-05T16:04:39;3.40;;;1.50;;
5279;SDS011;2663;53.588;10.010;2022-08-05T16:07:07;3.10;;;1.53;;
5279;SDS011;2663;53.588;10.010;2022-08-05T16:09:36;3.17;;;1.50;;
5279;SDS011;2663;53.588;10.010;2022-08-05T16:12:06;5.27;;;1.37;;
5279;SDS011;2663;53.588;10.010;2022-08-05T16:14:34;1.07;;;0.90;;
5279;SDS011;2663;53.588;10.010;2022-08-05T16:17:02;4.40;;;1.80;;
5279;SDS011;2663;53.588;10.010;2022-08-05T16:19:29;2.20;;;1.23;;
5279;SDS011;2663;53.588;10.010;2022-08-05T16:22:16;3.93;;;1.10;;
5279;SDS011;2663;53.588;10.010;2022-08-05T16:24:52;1.57;;;0.87;;
5279;SDS011;2663;53.588;10.010;2022-08-05T16:27:19;2.30;;;1.00;;
5279;SDS011;2663;53.588;10.010;2022-08-05T16:30:06;1.37;;;0.90;;